createdAt,value
2018-04-07T00:00:31.891Z,1003.52
2018-04-07T00:01:31.844Z,1003.53
2018-04-07T00:02:31.789Z,1003.53
2018-04-07T00:03:31.762Z,1003.52
2018-04-07T00:04:31.722Z,1003.50
2018-04-07T00:05:31.643Z,1003.50
2018-04-07T00:06:31.596Z,1003.49
2018-04-07T00:07:31.547Z,1003.45
2018-04-07T00:08:31.526Z,1003.41
2018-04-07T00:09:31.447Z,1003.44
2018-04-07T00:10:31.405Z,1003.46
2018-04-07T00:11:31.354Z,1003.49
2018-04-07T00:12:31.306Z,1003.43
2018-04-07T00:13:31.305Z,1003.47
2018-04-07T00:14:31.210Z,1003.46
2018-04-07T00:15:31.163Z,1003.42
2018-04-07T00:16:31.113Z,1003.47
2018-04-07T00:17:31.062Z,1003.49
2018-04-07T00:18:31.037Z,1003.52
2018-04-07T00:19:30.971Z,1003.50
2018-04-07T00:20:31.007Z,1003.51
2018-04-07T00:21:30.870Z,1003.53
2018-04-07T00:22:30.823Z,1003.55
2018-04-07T00:23:30.805Z,1003.54
2018-04-07T00:24:30.762Z,1003.54
2018-04-07T00:25:30.681Z,1003.48
2018-04-07T00:26:30.630Z,1003.52
2018-04-07T00:27:30.582Z,1003.56
2018-04-07T00:28:30.559Z,1003.53
2018-04-07T00:29:30.485Z,1003.55
2018-04-07T00:30:30.434Z,1003.58
2018-04-07T00:31:30.384Z,1003.58
2018-04-07T00:32:30.368Z,1003.58
2018-04-07T00:33:30.315Z,1003.58
2018-04-07T00:34:30.245Z,1003.58
2018-04-07T00:35:30.207Z,1003.52
2018-04-07T00:36:30.148Z,1003.54
2018-04-07T00:37:30.103Z,1003.53
2018-04-07T00:38:30.077Z,1003.46
2018-04-07T00:39:30.001Z,1003.45
2018-04-07T00:40:29.948Z,1003.43
2018-04-07T00:41:29.900Z,1003.39
2018-04-07T00:42:29.860Z,1003.43
2018-04-07T00:43:29.833Z,1003.41
2018-04-07T00:44:29.756Z,1003.34
2018-04-07T00:45:29.707Z,1003.35
2018-04-07T00:46:29.687Z,1003.28
2018-04-07T00:47:29.611Z,1003.33
2018-04-07T00:48:29.592Z,1003.33
2018-04-07T00:49:29.517Z,1003.31
2018-04-07T00:50:29.466Z,1003.29
2018-04-07T00:51:29.416Z,1003.30
2018-04-07T00:52:29.408Z,1003.33
2018-04-07T00:53:29.346Z,1003.24
2018-04-07T00:54:29.276Z,1003.29
2018-04-07T00:55:29.228Z,1003.26
2018-04-07T00:56:29.196Z,1003.23
2018-04-07T00:57:29.127Z,1003.21
2018-04-07T00:58:29.109Z,1003.26
2018-04-07T00:59:29.030Z,1003.21
2018-04-07T01:00:28.986Z,1003.20
2018-04-07T01:01:28.957Z,1003.19
2018-04-07T01:02:28.884Z,1003.16
2018-04-07T01:03:28.859Z,1003.22
2018-04-07T01:04:28.788Z,1003.19
2018-04-07T01:05:28.744Z,1003.17
2018-04-07T01:06:28.691Z,1003.17
2018-04-07T01:07:28.644Z,1003.16
2018-04-07T01:08:28.620Z,1003.14
2018-04-07T01:09:28.550Z,1003.16
2018-04-07T01:10:28.499Z,1003.12
2018-04-07T01:11:28.448Z,1003.08
2018-04-07T01:12:28.404Z,1003.11
2018-04-07T01:13:28.378Z,1003.09
2018-04-07T01:14:28.301Z,1003.07
2018-04-07T01:15:28.253Z,1003.06
2018-04-07T01:16:28.205Z,1003.06
2018-04-07T01:17:28.161Z,1003.03
2018-04-07T01:18:28.132Z,1003.08
2018-04-07T01:19:28.101Z,1003.01
2018-04-07T01:20:28.037Z,1003.02
2018-04-07T01:21:27.974Z,1003.00
2018-04-07T01:22:27.920Z,1003.01
2018-04-07T01:23:27.906Z,1003.01
2018-04-07T01:24:27.825Z,1003.04
2018-04-07T01:25:27.772Z,1003.03
2018-04-07T01:26:27.720Z,1003.01
2018-04-07T01:27:27.704Z,1002.97
2018-04-07T01:28:27.639Z,1002.95
2018-04-07T01:29:27.599Z,1002.92
2018-04-07T01:30:27.525Z,1002.94
2018-04-07T01:31:27.481Z,1002.87
2018-04-07T01:32:27.429Z,1002.92
2018-04-07T01:33:27.375Z,1002.84
2018-04-07T01:34:27.365Z,1002.85
2018-04-07T01:35:27.283Z,1002.81
2018-04-07T01:36:27.232Z,1002.83
2018-04-07T01:37:27.193Z,1002.82
2018-04-07T01:38:27.135Z,1002.82
2018-04-07T01:39:27.114Z,1002.87
2018-04-07T01:40:27.042Z,1002.86
2018-04-07T01:41:26.989Z,1002.87
2018-04-07T01:42:26.971Z,1002.90
2018-04-07T01:43:26.896Z,1002.90
2018-04-07T01:44:26.873Z,1002.84
2018-04-07T01:45:26.793Z,1002.84
2018-04-07T01:46:26.749Z,1002.84
2018-04-07T01:47:26.712Z,1002.85
2018-04-07T01:48:26.662Z,1002.80
2018-04-07T01:49:26.622Z,1002.79
2018-04-07T01:50:26.551Z,1002.81
2018-04-07T01:51:26.517Z,1002.83
2018-04-07T01:52:26.472Z,1002.79
2018-04-07T01:53:26.407Z,1002.86
2018-04-07T01:54:26.527Z,1002.77
2018-04-07T01:55:26.309Z,1002.79
2018-04-07T01:56:26.303Z,1002.76
2018-04-07T01:57:26.216Z,1002.80
2018-04-07T01:58:26.162Z,1002.77
2018-04-07T01:59:26.136Z,1002.78
2018-04-07T02:00:26.064Z,1002.78
2018-04-07T02:01:26.014Z,1002.77
2018-04-07T02:02:25.966Z,1002.81
2018-04-07T02:03:25.923Z,1002.75
2018-04-07T02:04:25.892Z,1002.77
2018-04-07T02:05:25.821Z,1002.78
2018-04-07T02:06:25.828Z,1002.78
2018-04-07T02:07:25.726Z,1002.79
2018-04-07T02:08:25.676Z,1002.77
2018-04-07T02:09:25.652Z,1002.80
2018-04-07T02:10:25.580Z,1002.82
2018-04-07T02:11:25.527Z,1002.82
2018-04-07T02:12:25.480Z,1002.83
2018-04-07T02:13:25.436Z,1002.85
2018-04-07T02:14:25.433Z,1002.87
2018-04-07T02:15:25.332Z,1002.88
2018-04-07T02:16:25.286Z,1002.86
2018-04-07T02:17:25.236Z,1002.84
2018-04-07T02:18:25.194Z,1002.86
2018-04-07T02:19:25.208Z,1002.84
2018-04-07T02:20:25.091Z,1002.83
2018-04-07T02:21:25.052Z,1002.86
2018-04-07T02:22:24.991Z,1002.84
2018-04-07T02:23:24.952Z,1002.80
2018-04-07T02:24:24.921Z,1002.78
2018-04-07T02:25:24.851Z,1002.79
2018-04-07T02:26:24.809Z,1002.81
2018-04-07T02:27:24.748Z,1002.81
2018-04-07T02:28:24.700Z,1002.85
2018-04-07T02:29:24.680Z,1002.84
2018-04-07T02:30:24.602Z,1002.80
2018-04-07T02:31:24.552Z,1002.87
2018-04-07T02:32:24.525Z,1002.83
2018-04-07T02:33:24.465Z,1002.85
2018-04-07T02:34:24.441Z,1002.87
2018-04-07T02:35:24.361Z,1002.84
2018-04-07T02:36:24.313Z,1002.82
2018-04-07T02:37:24.260Z,1002.83
2018-04-07T02:38:24.216Z,1002.78
2018-04-07T02:39:24.185Z,1002.76
2018-04-07T02:40:24.167Z,1002.81
2018-04-07T02:41:24.071Z,1002.73
2018-04-07T02:42:24.016Z,1002.71
2018-04-07T02:43:23.974Z,1002.71
2018-04-07T02:44:23.945Z,1002.68
2018-04-07T02:45:23.868Z,1002.66
2018-04-07T02:46:23.824Z,1002.65
2018-04-07T02:47:23.808Z,1002.61
2018-04-07T02:48:23.726Z,1002.61
2018-04-07T02:49:23.704Z,1002.61
2018-04-07T02:50:23.643Z,1002.63
2018-04-07T02:51:23.593Z,1002.61
2018-04-07T02:52:23.524Z,1002.59
2018-04-07T02:53:23.499Z,1002.59
2018-04-07T02:54:23.451Z,1002.53
2018-04-07T02:55:23.384Z,1002.54
2018-04-07T02:56:23.333Z,1002.55
2018-04-07T02:57:23.287Z,1002.52
2018-04-07T02:58:30.341Z,1002.52
2018-04-07T02:59:23.210Z,1002.52
2018-04-07T03:00:23.143Z,1002.54
2018-04-07T03:01:23.086Z,1002.55
2018-04-07T03:02:23.041Z,1002.58
2018-04-07T03:03:22.992Z,1002.54
2018-04-07T03:04:22.976Z,1002.56
2018-04-07T03:05:22.892Z,1002.59
2018-04-07T03:06:22.844Z,1002.57
2018-04-07T03:07:22.790Z,1002.57
2018-04-07T03:08:22.749Z,1002.56
2018-04-07T03:09:22.724Z,1002.57
2018-04-07T03:10:22.646Z,1002.57
2018-04-07T03:11:22.598Z,1002.60
2018-04-07T03:12:22.549Z,1002.56
2018-04-07T03:13:22.503Z,1002.58
2018-04-07T03:14:22.471Z,1002.59
2018-04-07T03:15:22.415Z,1002.58
2018-04-07T03:16:22.353Z,1002.58
2018-04-07T03:17:22.303Z,1002.54
2018-04-07T03:18:22.251Z,1002.59
2018-04-07T03:19:22.226Z,1002.57
2018-04-07T03:20:22.154Z,1002.56
2018-04-07T03:21:22.108Z,1002.57
2018-04-07T03:22:22.055Z,1002.53
2018-04-07T03:23:22.008Z,1002.56
2018-04-07T03:24:21.984Z,1002.53
2018-04-07T03:25:21.914Z,1002.49
2018-04-07T03:26:21.861Z,1002.46
2018-04-07T03:27:21.814Z,1002.46
2018-04-07T03:28:21.765Z,1002.48
2018-04-07T03:29:21.737Z,1002.48
2018-04-07T03:30:29.716Z,1002.49
2018-04-07T03:31:21.624Z,1002.47
2018-04-07T03:32:21.563Z,1002.49
2018-04-07T03:33:21.518Z,1002.39
2018-04-07T03:34:21.490Z,1002.46
2018-04-07T03:35:21.425Z,1002.42
2018-04-07T03:36:21.368Z,1002.41
2018-04-07T03:37:21.323Z,1002.39
2018-04-07T03:38:21.268Z,1002.38
2018-04-07T03:39:21.249Z,1002.39
2018-04-07T03:40:21.171Z,1002.38
2018-04-07T03:41:21.120Z,1002.36
2018-04-07T03:42:21.076Z,1002.32
2018-04-07T03:43:21.022Z,1002.36
2018-04-07T03:44:20.997Z,1002.35
2018-04-07T03:45:20.922Z,1002.33
2018-04-07T03:46:20.877Z,1002.37
2018-04-07T03:47:20.826Z,1002.37
2018-04-07T03:48:20.783Z,1002.33
2018-04-07T03:49:20.778Z,1002.35
2018-04-07T03:50:20.676Z,1002.36
2018-04-07T03:51:20.629Z,1002.36
2018-04-07T03:52:20.590Z,1002.41
2018-04-07T03:53:20.536Z,1002.44
2018-04-07T03:54:20.505Z,1002.43
2018-04-07T03:55:20.426Z,1002.43
2018-04-07T03:56:20.386Z,1002.44
2018-04-07T03:57:20.336Z,1002.47
2018-04-07T03:58:20.286Z,1002.42
2018-04-07T03:59:20.263Z,1002.41
2018-04-07T04:00:20.182Z,1002.46
2018-04-07T04:01:20.142Z,1002.45
2018-04-07T04:02:20.090Z,1002.49
2018-04-07T04:03:20.048Z,1002.44
2018-04-07T04:04:20.016Z,1002.48
2018-04-07T04:05:19.938Z,1002.45
2018-04-07T04:06:19.892Z,1002.49
2018-04-07T04:07:19.860Z,1002.49
2018-04-07T04:08:19.795Z,1002.48
2018-04-07T04:09:19.766Z,1002.46
2018-04-07T04:10:19.699Z,1002.46
2018-04-07T04:11:19.650Z,1002.41
2018-04-07T04:12:19.596Z,1002.42
2018-04-07T04:13:19.551Z,1002.40
2018-04-07T04:14:19.528Z,1002.41
2018-04-07T04:15:19.454Z,1002.37
2018-04-07T04:16:19.409Z,1002.38
2018-04-07T04:17:19.349Z,1002.33
2018-04-07T04:18:19.308Z,1002.32
2018-04-07T04:19:26.326Z,1002.32
2018-04-07T04:20:19.206Z,1002.28
2018-04-07T04:21:19.156Z,1002.24
2018-04-07T04:22:19.104Z,1002.25
2018-04-07T04:23:19.093Z,1002.26
2018-04-07T04:24:19.006Z,1002.22
2018-04-07T04:25:18.980Z,1002.21
2018-04-07T04:26:18.912Z,1002.20
2018-04-07T04:27:18.859Z,1002.17
2018-04-07T04:28:18.815Z,1002.18
2018-04-07T04:29:18.761Z,1002.17
2018-04-07T04:30:18.756Z,1002.15
2018-04-07T04:31:18.685Z,1002.15
2018-04-07T04:32:18.616Z,1002.16
2018-04-07T04:33:18.563Z,1002.13
2018-04-07T04:34:18.515Z,1002.18
2018-04-07T04:35:18.496Z,1002.14
2018-04-07T04:36:18.445Z,1002.14
2018-04-07T04:37:18.366Z,1002.14
2018-04-07T04:38:18.317Z,1002.11
2018-04-07T04:39:18.271Z,1002.14
2018-04-07T04:40:18.241Z,1002.12
2018-04-07T04:41:18.171Z,1002.15
2018-04-07T04:42:18.125Z,1002.13
2018-04-07T04:43:18.073Z,1002.14
2018-04-07T04:44:18.039Z,1002.15
2018-04-07T04:45:17.997Z,1002.17
2018-04-07T04:46:17.927Z,1002.17
2018-04-07T04:47:17.878Z,1002.08
2018-04-07T04:48:17.831Z,1002.10
2018-04-07T04:49:17.779Z,1002.10
2018-04-07T04:50:17.750Z,1002.08
2018-04-07T04:51:17.676Z,1002.05
2018-04-07T04:52:17.630Z,1002.00
2018-04-07T04:53:17.578Z,1001.97
2018-04-07T04:54:17.539Z,1001.94
2018-04-07T04:55:17.501Z,1001.96
2018-04-07T04:56:17.432Z,1001.93
2018-04-07T04:57:17.380Z,1001.91
2018-04-07T04:58:17.331Z,1001.93
2018-04-07T04:59:17.287Z,1001.94
2018-04-07T05:00:17.255Z,1001.91
2018-04-07T05:01:17.184Z,1001.94
2018-04-07T05:02:17.136Z,1001.94
2018-04-07T05:03:17.086Z,1001.94
2018-04-07T05:04:17.039Z,1001.95
2018-04-07T05:05:17.009Z,1002.00
2018-04-07T05:06:16.940Z,1002.01
2018-04-07T05:07:16.892Z,1002.00
2018-04-07T05:08:16.837Z,1002.03
2018-04-07T05:09:16.790Z,1002.04
2018-04-07T05:10:16.764Z,1002.05
2018-04-07T05:11:16.691Z,1002.03
2018-04-07T05:12:16.650Z,1002.04
2018-04-07T05:13:16.596Z,1002.01
2018-04-07T05:14:16.545Z,1002.06
2018-04-07T05:15:16.516Z,1002.02
2018-04-07T05:16:16.442Z,1002.01
2018-04-07T05:17:16.398Z,1002.02
2018-04-07T05:18:16.362Z,1001.96
2018-04-07T05:19:16.308Z,1001.99
2018-04-07T05:20:16.273Z,1002.02
2018-04-07T05:21:16.205Z,1002.01
2018-04-07T05:22:16.154Z,1002.02
2018-04-07T05:23:16.125Z,1002.04
2018-04-07T05:24:16.068Z,1002.01
2018-04-07T05:25:16.044Z,1002.00
2018-04-07T05:26:15.958Z,1002.00
2018-04-07T05:27:15.908Z,1001.99
2018-04-07T05:28:15.857Z,1001.98
2018-04-07T05:29:15.817Z,1002.01
2018-04-07T05:30:15.785Z,1002.03
2018-04-07T05:31:15.706Z,1002.03
2018-04-07T05:32:15.659Z,1002.05
2018-04-07T05:33:15.614Z,1002.03
2018-04-07T05:34:15.567Z,1001.99
2018-04-07T05:35:15.543Z,1002.03
2018-04-07T05:36:15.473Z,1002.04
2018-04-07T05:37:15.421Z,1002.02
2018-04-07T05:38:15.371Z,1002.00
2018-04-07T05:39:15.320Z,1002.02
2018-04-07T05:40:15.289Z,1002.03
2018-04-07T05:41:15.218Z,1002.07
2018-04-07T05:42:15.168Z,1002.08
2018-04-07T05:43:15.122Z,1002.05
2018-04-07T05:44:15.075Z,1002.01
2018-04-07T05:45:15.050Z,1002.00
2018-04-07T05:46:14.972Z,1002.06
2018-04-07T05:47:14.925Z,1002.05
2018-04-07T05:48:14.889Z,1002.03
2018-04-07T05:49:14.834Z,1001.99
2018-04-07T05:50:14.811Z,1001.98
2018-04-07T05:51:14.732Z,1001.97
2018-04-07T05:52:14.685Z,1001.95
2018-04-07T05:53:14.633Z,1001.97
2018-04-07T05:54:14.582Z,1001.96
2018-04-07T05:55:14.558Z,1001.98
2018-04-07T05:56:14.488Z,1001.87
2018-04-07T05:57:14.440Z,1001.87
2018-04-07T05:58:14.387Z,1001.86
2018-04-07T05:59:14.341Z,1001.89
2018-04-07T06:00:14.322Z,1001.91
2018-04-07T06:01:14.240Z,1001.91
2018-04-07T06:02:14.194Z,1001.89
2018-04-07T06:03:14.150Z,1001.86
2018-04-07T06:04:14.096Z,1001.86
2018-04-07T06:05:14.069Z,1001.82
2018-04-07T06:06:14.005Z,1001.83
2018-04-07T06:07:13.957Z,1001.80
2018-04-07T06:08:13.899Z,1001.81
2018-04-07T06:09:13.864Z,1001.83
2018-04-07T06:10:13.826Z,1001.78
2018-04-07T06:11:13.765Z,1001.72
2018-04-07T06:12:13.711Z,1001.79
2018-04-07T06:13:13.661Z,1001.76
2018-04-07T06:14:13.607Z,1001.70
2018-04-07T06:15:13.578Z,1001.78
2018-04-07T06:16:13.514Z,1001.77
2018-04-07T06:17:13.462Z,1001.78
2018-04-07T06:18:13.410Z,1001.73
2018-04-07T06:19:13.365Z,1001.79
2018-04-07T06:20:13.342Z,1001.75
2018-04-07T06:21:13.269Z,1001.74
2018-04-07T06:22:13.222Z,1001.73
2018-04-07T06:23:13.175Z,1001.62
2018-04-07T06:24:13.141Z,1001.64
2018-04-07T06:25:13.106Z,1001.61
2018-04-07T06:26:13.027Z,1001.59
2018-04-07T06:27:13.002Z,1001.65
2018-04-07T06:28:12.933Z,1001.64
2018-04-07T06:29:12.888Z,1001.63
2018-04-07T06:30:12.869Z,1001.58
2018-04-07T06:31:12.791Z,1001.61
2018-04-07T06:32:12.750Z,1001.59
2018-04-07T06:33:12.698Z,1001.53
2018-04-07T06:34:12.648Z,1001.62
2018-04-07T06:35:12.623Z,1001.58
2018-04-07T06:36:12.555Z,1001.61
2018-04-07T06:37:12.509Z,1001.56
2018-04-07T06:38:12.460Z,1001.58
2018-04-07T06:39:12.533Z,1001.58
2018-04-07T06:40:12.393Z,1001.60
2018-04-07T06:41:12.323Z,1001.61
2018-04-07T06:42:12.270Z,1001.63
2018-04-07T06:43:12.224Z,1001.61
2018-04-07T06:44:12.177Z,1001.64
2018-04-07T06:45:12.185Z,1001.63
2018-04-07T06:46:12.085Z,1001.60
2018-04-07T06:47:12.035Z,1001.63
2018-04-07T06:48:11.987Z,1001.63
2018-04-07T06:49:11.941Z,1001.62
2018-04-07T06:50:19.156Z,1001.59
2018-04-07T06:51:11.847Z,1001.62
2018-04-07T06:52:11.801Z,1001.64
2018-04-07T06:53:11.754Z,1001.56
2018-04-07T06:54:11.705Z,1001.60
2018-04-07T06:55:11.665Z,1001.59
2018-04-07T06:56:11.648Z,1001.56
2018-04-07T06:57:11.565Z,1001.61
2018-04-07T06:58:11.519Z,1001.60
2018-04-07T06:59:11.477Z,1001.59
2018-04-07T07:00:11.429Z,1001.57
2018-04-07T07:01:11.416Z,1001.57
2018-04-07T07:02:11.331Z,1001.56
2018-04-07T07:03:11.288Z,1001.62
2018-04-07T07:04:11.245Z,1001.57
2018-04-07T07:05:11.205Z,1001.59
2018-04-07T07:06:11.174Z,1001.56
2018-04-07T07:07:11.105Z,1001.58
2018-04-07T07:08:11.056Z,1001.57
2018-04-07T07:09:11.011Z,1001.61
2018-04-07T07:10:10.961Z,1001.56
2018-04-07T07:11:10.940Z,1001.56
2018-04-07T07:12:10.875Z,1001.58
2018-04-07T07:13:10.822Z,1001.58
2018-04-07T07:14:10.784Z,1001.60
2018-04-07T07:15:10.732Z,1001.68
2018-04-07T07:16:10.710Z,1001.64
2018-04-07T07:17:10.641Z,1001.65
2018-04-07T07:18:10.591Z,1001.62
2018-04-07T07:19:10.550Z,1001.63
2018-04-07T07:20:10.499Z,1001.60
2018-04-07T07:21:10.478Z,1001.56
2018-04-07T07:22:10.416Z,1001.53
2018-04-07T07:23:10.360Z,1001.51
2018-04-07T07:24:10.316Z,1001.57
2018-04-07T07:25:10.272Z,1001.55
2018-04-07T07:26:10.246Z,1001.52
2018-04-07T07:27:10.176Z,1001.58
2018-04-07T07:28:10.131Z,1001.55
2018-04-07T07:29:10.087Z,1001.60
2018-04-07T07:30:10.058Z,1001.59
2018-04-07T07:31:10.020Z,1001.58
2018-04-07T07:32:09.953Z,1001.60
2018-04-07T07:33:09.904Z,1001.60
2018-04-07T07:34:09.859Z,1001.63
2018-04-07T07:35:09.824Z,1001.57
2018-04-07T07:36:09.795Z,1001.59
2018-04-07T07:37:09.727Z,1001.54
2018-04-07T07:38:09.675Z,1001.62
2018-04-07T07:39:09.630Z,1001.58
2018-04-07T07:40:09.602Z,1001.54
2018-04-07T07:41:09.567Z,1001.57
2018-04-07T07:42:09.496Z,1001.58
2018-04-07T07:43:09.447Z,1001.57
2018-04-07T07:44:09.405Z,1001.52
2018-04-07T07:45:09.357Z,1001.54
2018-04-07T07:46:09.340Z,1001.59
2018-04-07T07:47:09.266Z,1001.54
2018-04-07T07:48:09.222Z,1001.57
2018-04-07T07:49:09.178Z,1001.57
2018-04-07T07:50:09.129Z,1001.53
2018-04-07T07:51:09.107Z,1001.55
2018-04-07T07:52:09.040Z,1001.51
2018-04-07T07:53:09.002Z,1001.54
2018-04-07T07:54:08.949Z,1001.53
2018-04-07T07:55:08.900Z,1001.51
2018-04-07T07:56:08.881Z,1001.52
2018-04-07T07:57:08.810Z,1001.53
2018-04-07T07:58:08.766Z,1001.53
2018-04-07T07:59:08.729Z,1001.53
2018-04-07T08:00:08.682Z,1001.51
2018-04-07T08:01:08.685Z,1001.46
2018-04-07T08:02:08.584Z,1001.51
2018-04-07T08:03:08.544Z,1001.52
2018-04-07T08:04:08.496Z,1001.47
2018-04-07T08:05:08.448Z,1001.45
2018-04-07T08:06:08.424Z,1001.43
2018-04-07T08:07:08.363Z,1001.49
2018-04-07T08:08:08.316Z,1001.46
2018-04-07T08:09:08.272Z,1001.48
2018-04-07T08:10:08.220Z,1001.50
2018-04-07T08:11:08.221Z,1001.46
2018-04-07T08:12:08.131Z,1001.50
2018-04-07T08:13:08.090Z,1001.44
2018-04-07T08:14:08.040Z,1001.45
2018-04-07T08:15:08.002Z,1001.43
2018-04-07T08:16:07.974Z,1001.48
2018-04-07T08:17:07.911Z,1001.46
2018-04-07T08:18:07.859Z,1001.45
2018-04-07T08:19:07.835Z,1001.45
2018-04-07T08:20:07.772Z,1001.45
2018-04-07T08:21:07.747Z,1001.47
2018-04-07T08:22:07.689Z,1001.45
2018-04-07T08:23:07.636Z,1001.42
2018-04-07T08:24:07.593Z,1001.34
2018-04-07T08:25:07.548Z,1001.40
2018-04-07T08:26:07.544Z,1001.41
2018-04-07T08:27:07.457Z,1001.41
2018-04-07T08:28:07.410Z,1001.41
2018-04-07T08:29:07.368Z,1001.41
2018-04-07T08:30:07.320Z,1001.51
2018-04-07T08:31:07.298Z,1001.44
2018-04-07T08:32:07.274Z,1001.51
2018-04-07T08:33:07.186Z,1001.51
2018-04-07T08:34:07.143Z,1001.51
2018-04-07T08:35:07.098Z,1001.52
2018-04-07T08:36:07.075Z,1001.53
2018-04-07T08:37:07.008Z,1001.48
2018-04-07T08:38:06.970Z,1001.52
2018-04-07T08:39:06.917Z,1001.49
2018-04-07T08:40:06.874Z,1001.51
2018-04-07T08:41:06.860Z,1001.50
2018-04-07T08:42:06.785Z,1001.51
2018-04-07T08:43:06.742Z,1001.51
2018-04-07T08:44:06.697Z,1001.54
2018-04-07T08:45:06.650Z,1001.60
2018-04-07T08:46:06.625Z,1001.61
2018-04-07T08:47:06.560Z,1001.59
2018-04-07T08:48:06.516Z,1001.62
2018-04-07T08:49:06.471Z,1001.61
2018-04-07T08:50:06.427Z,1001.62
2018-04-07T08:51:06.425Z,1001.61
2018-04-07T08:52:06.338Z,1001.63
2018-04-07T08:53:06.294Z,1001.59
2018-04-07T08:54:06.248Z,1001.58
2018-04-07T08:55:06.207Z,1001.54
2018-04-07T08:56:06.202Z,1001.56
2018-04-07T08:57:06.131Z,1001.56
2018-04-07T08:58:06.069Z,1001.52
2018-04-07T08:59:06.028Z,1001.53
2018-04-07T09:00:06.086Z,1001.49
2018-04-07T09:01:05.960Z,1001.46
2018-04-07T09:02:05.893Z,1001.46
2018-04-07T09:03:05.851Z,1001.48
2018-04-07T09:04:05.808Z,1001.46
2018-04-07T09:05:05.769Z,1001.51
2018-04-07T09:06:05.766Z,1001.47
2018-04-07T09:07:05.677Z,1001.42
2018-04-07T09:08:05.634Z,1001.41
2018-04-07T09:09:05.585Z,1001.45
2018-04-07T09:10:05.539Z,1001.45
2018-04-07T09:11:05.522Z,1001.47
2018-04-07T09:12:05.449Z,1001.48
2018-04-07T09:13:05.404Z,1001.48
2018-04-07T09:14:05.363Z,1001.46
2018-04-07T09:15:05.319Z,1001.49
2018-04-07T09:16:05.298Z,1001.48
2018-04-07T09:17:05.229Z,1001.46
2018-04-07T09:18:05.208Z,1001.42
2018-04-07T09:19:05.141Z,1001.42
2018-04-07T09:20:05.097Z,1001.43
2018-04-07T09:21:05.078Z,1001.45
2018-04-07T09:22:05.009Z,1001.43
2018-04-07T09:23:04.968Z,1001.38
2018-04-07T09:24:04.924Z,1001.37
2018-04-07T09:25:04.878Z,1001.42
2018-04-07T09:26:04.854Z,1001.38
2018-04-07T09:27:04.789Z,1001.39
2018-04-07T09:28:04.743Z,1001.37
2018-04-07T09:29:04.704Z,1001.39
2018-04-07T09:30:04.659Z,1001.44
2018-04-07T09:31:04.640Z,1001.42
2018-04-07T09:32:04.572Z,1001.38
2018-04-07T09:33:04.524Z,1001.41
2018-04-07T09:34:04.480Z,1001.38
2018-04-07T09:35:04.433Z,1001.40
2018-04-07T09:36:04.391Z,1001.36
2018-04-07T09:37:04.374Z,1001.39
2018-04-07T09:38:04.304Z,1001.41
2018-04-07T09:39:04.262Z,1001.44
2018-04-07T09:40:04.219Z,1001.39
2018-04-07T09:41:04.176Z,1001.34
2018-04-07T09:42:04.161Z,1001.28
2018-04-07T09:43:04.082Z,1001.34
2018-04-07T09:44:04.042Z,1001.36
2018-04-07T09:45:03.999Z,1001.32
2018-04-07T09:46:03.953Z,1001.32
2018-04-07T09:47:03.932Z,1001.26
2018-04-07T09:48:03.868Z,1001.21
2018-04-07T09:49:03.822Z,1001.24
2018-04-07T09:50:03.776Z,1001.21
2018-04-07T09:51:03.734Z,1001.21
2018-04-07T09:52:03.718Z,1001.20
2018-04-07T09:53:03.645Z,1001.16
2018-04-07T09:54:03.607Z,1001.15
2018-04-07T09:55:03.558Z,1001.17
2018-04-07T09:56:03.514Z,1001.19
2018-04-07T09:57:03.501Z,1001.17
2018-04-07T09:58:03.429Z,1001.12
2018-04-07T09:59:03.378Z,1001.10
2018-04-07T10:00:03.340Z,1001.07
2018-04-07T10:01:03.295Z,1001.13
2018-04-07T10:02:03.274Z,1001.11
2018-04-07T10:03:03.208Z,1001.10
2018-04-07T10:04:03.164Z,1001.08
2018-04-07T10:05:03.127Z,1001.09
2018-04-07T10:06:03.084Z,1001.15
2018-04-07T10:07:03.063Z,1001.13
2018-04-07T10:08:02.995Z,1001.11
2018-04-07T10:09:02.951Z,1001.05
2018-04-07T10:10:02.908Z,1001.00
2018-04-07T10:11:02.864Z,1001.07
2018-04-07T10:12:02.845Z,1001.04
2018-04-07T10:13:02.772Z,1001.03
2018-04-07T10:14:02.732Z,1001.04
2018-04-07T10:15:02.685Z,1001.04
2018-04-07T10:16:02.649Z,1000.99
2018-04-07T10:17:02.623Z,1001.03
2018-04-07T10:18:02.558Z,1001.00
2018-04-07T10:19:02.510Z,1000.98
2018-04-07T10:20:02.474Z,1000.95
2018-04-07T10:21:02.423Z,1001.01
2018-04-07T10:22:02.406Z,1000.98
2018-04-07T10:23:02.347Z,1000.98
2018-04-07T10:24:02.310Z,1001.01
2018-04-07T10:25:02.254Z,1000.95
2018-04-07T10:26:02.209Z,1000.90
2018-04-07T10:27:02.191Z,1000.93
2018-04-07T10:28:02.126Z,1000.93
2018-04-07T10:29:02.085Z,1000.87
2018-04-07T10:30:02.043Z,1000.90
2018-04-07T10:31:02.001Z,1000.89
2018-04-07T10:32:01.980Z,1000.84
2018-04-07T10:33:01.927Z,1000.81
2018-04-07T10:34:01.909Z,1000.78
2018-04-07T10:35:01.852Z,1000.78
2018-04-07T10:36:01.783Z,1000.75
2018-04-07T10:37:01.765Z,1000.74
2018-04-07T10:38:01.693Z,1000.76
2018-04-07T10:39:01.654Z,1000.77
2018-04-07T10:40:01.615Z,1000.72
2018-04-07T10:41:01.563Z,1000.78
2018-04-07T10:42:01.546Z,1000.76
2018-04-07T10:43:01.486Z,1000.76
2018-04-07T10:44:01.438Z,1000.74
2018-04-07T10:45:01.398Z,1000.78
2018-04-07T10:46:01.353Z,1000.74
2018-04-07T10:47:01.332Z,1000.73
2018-04-07T10:48:01.265Z,1000.74
2018-04-07T10:49:01.232Z,1000.70
2018-04-07T10:50:01.189Z,1000.70
2018-04-07T10:51:01.142Z,1000.66
2018-04-07T10:52:01.123Z,1000.68
2018-04-07T10:53:01.056Z,1000.65
2018-04-07T10:54:01.010Z,1000.68
2018-04-07T10:55:00.981Z,1000.64
2018-04-07T10:56:00.926Z,1000.66
2018-04-07T10:57:00.910Z,1000.65
2018-04-07T10:58:00.840Z,1000.64
2018-04-07T10:59:00.808Z,1000.64
2018-04-07T11:00:00.762Z,1000.58
2018-04-07T11:01:00.720Z,1000.54
2018-04-07T11:02:00.706Z,1000.56
2018-04-07T11:03:00.752Z,1000.57
2018-04-07T11:04:00.588Z,1000.58
2018-04-07T11:05:00.543Z,1000.54
2018-04-07T11:06:00.647Z,1000.54
2018-04-07T11:07:00.488Z,1000.57
2018-04-07T11:08:00.415Z,1000.60
2018-04-07T11:09:00.393Z,1000.52
2018-04-07T11:10:00.335Z,1000.51
2018-04-07T11:11:00.298Z,1000.50
2018-04-07T11:12:00.273Z,1000.56
2018-04-07T11:13:00.208Z,1000.58
2018-04-07T11:14:00.168Z,1000.53
2018-04-07T11:15:00.158Z,1000.48
2018-04-07T11:16:00.174Z,1000.53
2018-04-07T11:17:00.102Z,1000.55
2018-04-07T11:18:00.053Z,1000.50
2018-04-07T11:18:59.995Z,1000.47
2018-04-07T11:19:59.931Z,1000.45
2018-04-07T11:20:59.917Z,1000.43
2018-04-07T11:21:59.920Z,1000.45
2018-04-07T11:22:59.849Z,1000.42
2018-04-07T11:23:59.785Z,1000.41
2018-04-07T11:24:59.776Z,1000.38
2018-04-07T11:25:59.700Z,1000.40
2018-04-07T11:26:59.745Z,1000.40
2018-04-07T11:27:59.642Z,1000.40
2018-04-07T11:28:59.610Z,1000.35
2018-04-07T11:29:59.521Z,1000.35
2018-04-07T11:30:59.445Z,1000.35
2018-04-07T11:31:59.428Z,1000.36
2018-04-07T11:32:59.357Z,1000.30
2018-04-07T11:33:59.322Z,1000.28
2018-04-07T11:34:59.274Z,1000.35
2018-04-07T11:35:59.253Z,1000.25
2018-04-07T11:36:59.218Z,1000.28
2018-04-07T11:37:59.146Z,1000.32
2018-04-07T11:38:59.106Z,1000.32
2018-04-07T11:39:59.067Z,1000.34
2018-04-07T11:40:59.027Z,1000.36
2018-04-07T11:41:59.001Z,1000.28
2018-04-07T11:42:58.936Z,1000.30
2018-04-07T11:43:58.894Z,1000.30
2018-04-07T11:44:58.857Z,1000.28
2018-04-07T11:45:58.809Z,1000.25
2018-04-07T11:46:58.793Z,1000.25
2018-04-07T11:47:58.731Z,1000.23
2018-04-07T11:48:58.685Z,1000.21
2018-04-07T11:49:58.642Z,1000.17
2018-04-07T11:50:58.601Z,1000.20
2018-04-07T11:51:58.580Z,1000.19
2018-04-07T11:52:58.519Z,1000.17
2018-04-07T11:53:58.479Z,1000.17
2018-04-07T11:54:58.427Z,1000.14
2018-04-07T11:55:58.388Z,1000.15
2018-04-07T11:56:58.368Z,1000.12
2018-04-07T11:57:58.304Z,1000.13
2018-04-07T11:58:58.266Z,1000.16
2018-04-07T11:59:58.220Z,1000.13
2018-04-07T12:00:58.181Z,1000.11
2018-04-07T12:01:58.164Z,1000.11
2018-04-07T12:02:58.100Z,1000.07
2018-04-07T12:03:58.069Z,1000.07
2018-04-07T12:04:58.008Z,1000.05